Time;durP1;ratioP1;P1;durP2;ratioP2;P2;SDS_P1;SDS_P2;PMS_P1;PMS_P2;Temp;Humidity;BMP_temperature;BMP_pressure;BME280_temperature;BME280_humidity;BME280_pressure;Samples;Min_cycle;Max_cycle;Signal;HPM_P1;HPM_P2
2022/02/18 00:00:48;;;;;;;;;;;;;;;6.80;89.22;98373.67;1765496;80;20250;-78
2022/02/18 00:03:16;;;;;;;;;;;;;;;6.77;89.69;98358.28;1766473;80;20189;-79
2022/02/18 00:05:43;;;;;;;;;;;;;;;6.76;89.72;98348.80;1771060;80;20207;-79
2022/02/18 00:08:08;;;;;;;;;;;;;;;6.88;89.47;98365.42;1763861;80;21080;-78
2022/02/18 00:10:34;;;;;;;;;;;;;;;6.82;88.41;98369.09;1763320;80;20137;-78
2022/02/18 00:13:00;;;;;;;;;;;;;;;6.63;88.57;98386.59;1770203;80;20197;-79
2022/02/18 00:15:25;;;;;;;;;;;;;;;6.79;88.21;98371.22;1769444;80;20615;-80
2022/02/18 00:17:51;;;;;;;;;;;;;;;6.97;86.81;98379.61;1770041;80;20141;-78
2022/02/18 00:20:17;;;;;;;;;;;;;;;6.87;87.16;98359.84;1765154;80;21857;-79
2022/02/18 00:22:42;;;;;;;;;;;;;;;6.80;86.99;98397.28;1760711;80;20126;-82
2022/02/18 00:25:10;;;;;;;;;;;;;;;7.14;86.28;98407.05;1770554;80;20181;-78
2022/02/18 00:27:37;;;;;;;;;;;;;;;7.11;85.89;98406.08;1763493;80;20160;-79
2022/02/18 00:30:06;;;;;;;;;;;;;;;6.97;86.31;98373.55;1761777;80;20211;-80
2022/02/18 00:32:31;;;;;;;;;;;;;;;6.80;86.21;98397.79;1764326;80;22699;-78
2022/02/18 00:34:58;;;;;;;;;;;;;;;6.74;86.14;98429.97;1771397;80;20199;-79
2022/02/18 00:37:23;;;;;;;;;;;;;;;6.75;85.87;98443.41;1758455;80;20156;-79
2022/02/18 00:39:49;;;;;;;;;;;;;;;6.62;85.67;98440.05;1758826;80;20213;-80
2022/02/18 00:42:16;;;;;;;;;;;;;;;6.95;85.25;98399.16;1759916;80;20645;-80
2022/02/18 00:44:44;;;;;;;;;;;;;;;6.63;85.99;98448.23;1757839;80;21103;-81
2022/02/18 00:47:12;;;;;;;;;;;;;;;6.72;85.51;98458.99;1757992;80;20503;-81
2022/02/18 00:49:39;;;;;;;;;;;;;;;6.95;84.63;98455.58;1776140;80;20199;-80
2022/02/18 00:52:05;;;;;;;;;;;;;;;6.85;85.37;98451.05;1756684;80;20191;-83
2022/02/18 00:54:31;;;;;;;;;;;;;;;6.94;85.00;98431.63;1750794;80;20200;-82
2022/02/18 00:57:00;;;;;;;;;;;;;;;6.88;84.83;98450.70;1762935;80;21977;-80
2022/02/18 00:59:26;;;;;;;;;;;;;;;6.65;87.32;98437.09;1762928;80;20197;-80
2022/02/18 01:01:51;;;;;;;;;;;;;;;6.76;87.32;98451.62;1756559;80;20256;-80
2022/02/18 01:04:17;;;;;;;;;;;;;;;7.04;86.26;98458.47;1754862;80;20177;-80
2022/02/18 01:06:42;;;;;;;;;;;;;;;7.21;85.30;98445.20;1756727;80;20178;-81
2022/02/18 01:09:08;;;;;;;;;;;;;;;7.03;86.11;98461.27;1760999;80;21015;-79
2022/02/18 01:11:34;;;;;;;;;;;;;;;6.90;85.62;98497.25;1758244;80;20188;-80
2022/02/18 01:13:59;;;;;;;;;;;;;;;6.81;85.73;98464.52;1759403;80;20150;-79
2022/02/18 01:16:25;;;;;;;;;;;;;;;6.91;85.33;98466.09;1755631;80;20976;-85
2022/02/18 01:18:53;;;;;;;;;;;;;;;6.62;85.69;98496.45;1759640;80;20158;-86
2022/02/18 01:21:18;;;;;;;;;;;;;;;6.73;86.58;98477.69;1755475;80;20110;-80
2022/02/18 01:23:44;;;;;;;;;;;;;;;6.80;86.36;98481.23;1760598;80;20151;-81
2022/02/18 01:26:09;;;;;;;;;;;;;;;6.66;86.70;98454.44;1765991;80;20232;-80
2022/02/18 01:28:35;;;;;;;;;;;;;;;6.90;85.65;98460.05;1771871;80;20146;-80
2022/02/18 01:31:02;;;;;;;;;;;;;;;6.70;85.55;98458.36;1760876;80;20184;-79
2022/02/18 01:33:28;;;;;;;;;;;;;;;6.89;85.36;98458.91;1758059;80;21950;-81
2022/02/18 01:35:53;;;;;;;;;;;;;;;6.62;85.76;98473.65;1758128;80;20151;-80
2022/02/18 01:38:19;;;;;;;;;;;;;;;6.83;85.20;98441.53;1756619;80;20445;-79
2022/02/18 01:40:44;;;;;;;;;;;;;;;6.87;84.74;98486.63;1759480;80;20140;-79
2022/02/18 01:43:10;;;;;;;;;;;;;;;6.95;83.47;98485.25;1762153;80;20520;-78
2022/02/18 01:45:35;;;;;;;;;;;;;;;6.65;83.72;98488.23;1759593;80;21163;-78
2022/02/18 01:48:01;;;;;;;;;;;;;;;6.77;82.74;98524.87;1758188;80;20509;-81
2022/02/18 01:50:27;;;;;;;;;;;;;;;6.77;83.06;98483.39;1754459;80;20192;-80
2022/02/18 01:52:53;;;;;;;;;;;;;;;6.80;82.05;98502.73;1752320;80;20459;-78
2022/02/18 01:55:20;;;;;;;;;;;;;;;6.90;82.02;98496.78;1755632;80;20105;-83
2022/02/18 01:57:48;;;;;;;;;;;;;;;6.88;81.73;98499.24;1760809;80;21141;-82
2022/02/18 02:00:16;;;;;;;;;;;;;;;7.08;81.17;98499.61;1759585;80;20152;-81
2022/02/18 02:02:42;;;;;;;;;;;;;;;6.78;81.25;98500.78;1754538;80;20196;-78
2022/02/18 02:05:08;;;;;;;;;;;;;;;6.88;81.18;98505.80;1752282;80;20176;-78
2022/02/18 02:07:34;;;;;;;;;;;;;;;6.98;80.19;98484.10;1738478;80;20177;-78
2022/02/18 02:09:59;;;;;;;;;;;;;;;6.79;80.56;98517.66;1751846;80;21890;-79
2022/02/18 02:12:25;;;;;;;;;;;;;;;6.94;80.10;98488.86;1758850;80;20112;-81
2022/02/18 02:14:50;;;;;;;;;;;;;;;6.89;79.87;98512.70;1758779;80;20469;-79
2022/02/18 02:17:16;;;;;;;;;;;;;;;6.87;79.71;98527.77;1761294;80;21318;-81
2022/02/18 02:19:42;;;;;;;;;;;;;;;6.87;80.13;98506.78;1763126;80;20179;-83
2022/02/18 02:22:07;;;;;;;;;;;;;;;6.71;79.76;98504.59;1760952;80;21987;-81
2022/02/18 02:24:33;;;;;;;;;;;;;;;6.72;80.46;98519.33;1760608;80;20184;-82
2022/02/18 02:26:59;;;;;;;;;;;;;;;7.09;79.69;98525.69;1758908;80;20150;-81
2022/02/18 02:29:24;;;;;;;;;;;;;;;6.87;79.80;98510.72;1760397;80;20667;-81
2022/02/18 02:31:50;;;;;;;;;;;;;;;7.10;78.56;98516.83;1763158;80;20122;-82
2022/02/18 02:34:15;;;;;;;;;;;;;;;7.02;77.99;98520.80;1761543;80;21960;-84
2022/02/18 02:36:42;;;;;;;;;;;;;;;6.93;77.83;98522.67;1762314;80;20354;-81
2022/02/18 02:39:07;;;;;;;;;;;;;;;7.06;77.39;98530.48;1769005;80;20201;-78
2022/02/18 02:41:34;;;;;;;;;;;;;;;7.22;77.65;98550.05;1769071;79;20403;-85
2022/02/18 02:43:59;;;;;;;;;;;;;;;6.97;79.10;98569.06;1776138;80;20214;-85
2022/02/18 02:46:25;;;;;;;;;;;;;;;6.84;80.04;98528.95;1762641;79;21211;-79
2022/02/18 02:48:50;;;;;;;;;;;;;;;6.74;81.39;98546.23;1767375;79;20487;-83
2022/02/18 02:51:16;;;;;;;;;;;;;;;6.86;80.90;98555.02;1768802;80;20153;-81
2022/02/18 02:53:42;;;;;;;;;;;;;;;6.63;82.29;98572.34;1771649;80;20141;-81
2022/02/18 02:56:07;;;;;;;;;;;;;;;6.66;81.81;98568.54;1771435;80;20505;-80
2022/02/18 02:58:34;;;;;;;;;;;;;;;6.66;83.06;98598.70;1765825;79;21922;-80
2022/02/18 03:00:59;;;;;;;;;;;;;;;6.65;83.30;98566.42;1769804;80;20493;-81
2022/02/18 03:03:28;;;;;;;;;;;;;;;6.58;83.96;98577.25;1771887;80;20166;-80
2022/02/18 03:05:54;;;;;;;;;;;;;;;6.54;84.27;98554.16;1767824;80;20130;-80
2022/02/18 03:08:19;;;;;;;;;;;;;;;6.65;85.85;98560.37;1768090;80;20143;-80
2022/02/18 03:11:14;;;;;;;;;;;;;;;6.53;85.29;98549.92;1766915;80;21080;-80
2022/02/18 03:13:12;;;;;;;;;;;;;;;6.41;86.04;98568.63;1756171;80;20473;-80
2022/02/18 03:15:38;;;;;;;;;;;;;;;6.46;85.86;98563.70;1764830;80;20177;-80
2022/02/18 03:18:03;;;;;;;;;;;;;;;6.45;85.40;98602.70;1770652;80;20443;-80
2022/02/18 03:20:29;;;;;;;;;;;;;;;6.30;86.59;98566.36;1762852;80;20153;-80
2022/02/18 03:22:55;;;;;;;;;;;;;;;6.34;86.95;98603.54;1764006;80;21067;-80
2022/02/18 03:25:21;;;;;;;;;;;;;;;6.49;86.52;98612.36;1770310;80;20249;-83
2022/02/18 03:27:46;;;;;;;;;;;;;;;6.15;87.65;98607.34;1771685;79;20251;-79
2022/02/18 03:30:12;;;;;;;;;;;;;;;6.05;89.19;98600.98;1785456;79;20143;-80
2022/02/18 03:32:37;;;;;;;;;;;;;;;6.09;89.10;98606.20;1734598;80;20404;-84
2022/02/18 03:35:04;;;;;;;;;;;;;;;6.32;89.11;98593.22;1736506;80;21025;-79
2022/02/18 03:37:30;;;;;;;;;;;;;;;5.95;89.73;98607.68;1774627;80;20166;-80
2022/02/18 03:39:56;;;;;;;;;;;;;;;6.05;89.26;98605.72;1773202;80;20187;-84
2022/02/18 03:42:21;;;;;;;;;;;;;;;6.00;88.79;98634.73;1762117;80;20487;-84
2022/02/18 03:44:48;;;;;;;;;;;;;;;6.23;87.16;98620.43;1759464;80;20158;-80
2022/02/18 03:47:14;;;;;;;;;;;;;;;6.18;87.36;98599.16;1778915;80;21169;-79
2022/02/18 03:49:40;;;;;;;;;;;;;;;6.16;86.66;98614.23;1777700;80;20487;-81
2022/02/18 03:52:06;;;;;;;;;;;;;;;6.19;85.78;98616.53;1765391;80;20940;-79
2022/02/18 03:54:33;;;;;;;;;;;;;;;6.21;85.75;98622.41;1750012;80;20161;-79
2022/02/18 03:57:00;;;;;;;;;;;;;;;6.33;85.22;98614.53;1757519;80;20206;-81
2022/02/18 03:59:26;;;;;;;;;;;;;;;6.34;85.00;98621.89;1742938;80;20124;-82
2022/02/18 04:01:53;;;;;;;;;;;;;;;6.43;84.75;98607.31;1765907;80;20135;-81
2022/02/18 04:04:18;;;;;;;;;;;;;;;6.32;83.75;98628.61;1775508;80;20147;-80
2022/02/18 04:06:44;;;;;;;;;;;;;;;6.60;83.19;98629.55;1768112;80;20147;-79
2022/02/18 04:09:12;;;;;;;;;;;;;;;6.50;83.03;98644.16;1758482;80;20671;-80
2022/02/18 04:11:37;;;;;;;;;;;;;;;6.39;82.89;98659.75;1753653;80;20195;-80
2022/02/18 04:14:03;;;;;;;;;;;;;;;6.32;82.58;98645.66;1765677;80;20186;-80
2022/02/18 04:16:29;;;;;;;;;;;;;;;6.54;82.01;98655.12;1768904;80;20230;-83
2022/02/18 04:18:57;;;;;;;;;;;;;;;6.51;81.81;98656.77;1764305;80;20486;-83
2022/02/18 04:21:22;;;;;;;;;;;;;;;6.35;81.73;98675.47;1771847;80;20176;-83
2022/02/18 04:23:48;;;;;;;;;;;;;;;6.32;82.08;98677.61;1767689;80;21749;-80
2022/02/18 04:26:14;;;;;;;;;;;;;;;6.33;82.27;98681.38;1767884;80;20179;-80
2022/02/18 04:28:39;;;;;;;;;;;;;;;6.31;81.47;98699.09;1775406;80;20134;-80
2022/02/18 04:31:05;;;;;;;;;;;;;;;6.55;79.76;98684.31;1758855;80;20107;-83
2022/02/18 04:33:30;;;;;;;;;;;;;;;6.52;79.38;98674.16;1764871;80;20459;-82
2022/02/18 04:35:56;;;;;;;;;;;;;;;6.50;78.81;98699.73;1768051;79;21950;-79
2022/02/18 04:38:21;;;;;;;;;;;;;;;6.60;79.17;98716.09;1756041;80;20132;-80
2022/02/18 04:40:47;;;;;;;;;;;;;;;6.60;78.83;98690.70;1763037;80;20195;-82
2022/02/18 04:43:13;;;;;;;;;;;;;;;6.41;79.05;98712.83;1753811;80;20119;-79
2022/02/18 04:45:38;;;;;;;;;;;;;;;6.59;78.37;98770.87;1763880;80;20156;-79
2022/02/18 04:48:04;;;;;;;;;;;;;;;6.44;80.53;98721.68;1750699;79;21108;-85
2022/02/18 04:50:30;;;;;;;;;;;;;;;6.36;80.10;98780.69;1761765;80;20527;-83
2022/02/18 04:52:55;;;;;;;;;;;;;;;6.49;78.99;98789.87;1761979;80;20183;-80
2022/02/18 04:55:22;;;;;;;;;;;;;;;6.59;79.22;98722.34;1761236;79;21075;-79
2022/02/18 04:57:48;;;;;;;;;;;;;;;6.75;78.56;98729.36;1753965;80;20254;-83
2022/02/18 05:00:14;;;;;;;;;;;;;;;6.74;77.87;98799.86;1759355;80;21909;-80
2022/02/18 05:02:40;;;;;;;;;;;;;;;6.75;77.20;98744.61;1758897;80;20163;-81
2022/02/18 05:05:06;;;;;;;;;;;;;;;6.86;77.45;98755.75;1762753;80;20219;-79
2022/02/18 05:07:31;;;;;;;;;;;;;;;6.71;77.35;98744.63;1761335;80;20217;-82
2022/02/18 05:09:57;;;;;;;;;;;;;;;6.70;77.28;98798.07;1759005;79;20177;-80
2022/02/18 05:12:23;;;;;;;;;;;;;;;6.77;77.05;98758.36;1760140;80;21113;-80
2022/02/18 05:14:49;;;;;;;;;;;;;;;6.78;76.91;98784.94;1764106;80;20203;-79
2022/02/18 05:17:15;;;;;;;;;;;;;;;6.82;76.40;98767.89;1761364;79;20189;-84
2022/02/18 05:19:40;;;;;;;;;;;;;;;6.81;76.73;98770.68;1765346;80;20149;-79
2022/02/18 05:22:06;;;;;;;;;;;;;;;6.70;76.53;98768.41;1761944;80;20451;-81
2022/02/18 05:24:31;;;;;;;;;;;;;;;6.85;76.41;98794.77;1762667;80;21202;-79
2022/02/18 05:26:59;;;;;;;;;;;;;;;6.93;75.76;98807.88;1755637;80;21042;-79
2022/02/18 05:29:24;;;;;;;;;;;;;;;6.64;76.74;98798.73;1759472;79;20150;-80
2022/02/18 05:31:50;;;;;;;;;;;;;;;6.74;76.25;98802.02;1751142;79;20522;-84
2022/02/18 05:34:18;;;;;;;;;;;;;;;6.72;75.92;98803.96;1758685;79;20199;-79
2022/02/18 05:36:43;;;;;;;;;;;;;;;6.69;76.03;98839.70;1764625;80;21133;-82
2022/02/18 05:39:09;;;;;;;;;;;;;;;6.82;75.45;98815.12;1763029;79;20449;-81
2022/02/18 05:41:35;;;;;;;;;;;;;;;6.70;75.69;98851.04;1759409;79;20189;-84
2022/02/18 05:44:00;;;;;;;;;;;;;;;6.54;75.24;98821.19;1757883;79;20155;-82
2022/02/18 05:46:26;;;;;;;;;;;;;;;6.79;74.83;98844.31;1764907;79;20144;-79
2022/02/18 05:48:52;;;;;;;;;;;;;;;6.83;74.62;98828.55;1759463;80;21036;-79
2022/02/18 05:51:17;;;;;;;;;;;;;;;6.70;74.27;98829.55;1759203;79;20323;-78
2022/02/18 05:53:43;;;;;;;;;;;;;;;6.90;73.97;98832.66;1771422;80;20156;-79
2022/02/18 05:56:08;;;;;;;;;;;;;;;6.74;74.06;98838.74;1763731;79;20752;-78
2022/02/18 05:58:34;;;;;;;;;;;;;;;6.85;73.84;98844.63;1758156;80;20503;-79
2022/02/18 06:01:00;;;;;;;;;;;;;;;6.78;73.83;98841.34;1764652;80;21982;-80
2022/02/18 06:03:25;;;;;;;;;;;;;;;6.90;73.59;98843.63;1755587;79;20149;-80
2022/02/18 06:05:53;;;;;;;;;;;;;;;6.77;73.85;98838.39;1763795;80;20198;-81
2022/02/18 06:08:18;;;;;;;;;;;;;;;6.78;73.49;98865.46;1767386;80;20180;-79
2022/02/18 06:10:44;;;;;;;;;;;;;;;6.74;74.36;98870.23;1761900;79;20163;-82
2022/02/18 06:13:09;;;;;;;;;;;;;;;6.88;73.62;98870.54;1766460;79;21068;-82
2022/02/18 06:15:36;;;;;;;;;;;;;;;6.72;74.35;98891.04;1764011;80;20205;-80
2022/02/18 06:18:02;;;;;;;;;;;;;;;6.64;74.28;98878.73;1764650;79;20201;-78
2022/02/18 06:20:28;;;;;;;;;;;;;;;6.79;74.04;98870.55;1762289;79;20156;-82
2022/02/18 06:22:56;;;;;;;;;;;;;;;6.93;73.77;98857.27;1763320;80;20165;-80
2022/02/18 06:25:21;;;;;;;;;;;;;;;6.84;74.05;98894.98;1764158;80;21153;-82
2022/02/18 06:27:47;;;;;;;;;;;;;;;6.87;73.90;98880.23;1756331;79;20208;-81
2022/02/18 06:30:12;;;;;;;;;;;;;;;6.83;74.53;98893.33;1752572;79;20667;-82
2022/02/18 06:32:38;;;;;;;;;;;;;;;6.72;74.91;98914.15;1759550;79;20537;-81
2022/02/18 06:35:04;;;;;;;;;;;;;;;6.75;74.45;98879.72;1750574;80;20137;-81
2022/02/18 06:37:30;;;;;;;;;;;;;;;6.87;73.86;98889.88;1758354;79;21888;-80
2022/02/18 06:39:55;;;;;;;;;;;;;;;6.95;73.27;98884.66;1767558;80;20143;-84
2022/02/18 06:42:21;;;;;;;;;;;;;;;7.11;72.53;98897.76;1763368;80;20153;-82
2022/02/18 06:44:46;;;;;;;;;;;;;;;6.91;72.97;98897.77;1761831;80;20139;-79
2022/02/18 06:47:12;;;;;;;;;;;;;;;6.83;73.61;98906.45;1763327;79;20448;-78
2022/02/18 06:49:40;;;;;;;;;;;;;;;6.86;73.19;98949.42;1765309;79;21120;-78
2022/02/18 06:52:06;;;;;;;;;;;;;;;7.05;72.58;98903.66;1760684;79;20135;-79
2022/02/18 06:54:32;;;;;;;;;;;;;;;7.02;72.41;98930.24;1762139;80;20127;-82
2022/02/18 06:57:00;;;;;;;;;;;;;;;7.05;72.63;98944.35;1760599;80;20120;-87
2022/02/18 06:59:25;;;;;;;;;;;;;;;6.81;72.71;98927.61;1760572;79;20168;-82
2022/02/18 07:01:54;;;;;;;;;;;;;;;7.00;72.30;98955.84;1758392;79;21085;-80
2022/02/18 07:04:18;;;;;;;;;;;;;;;6.98;72.30;98944.70;1755905;79;20157;-80
2022/02/18 07:06:44;;;;;;;;;;;;;;;7.04;72.16;98946.67;1762357;80;20183;-83
2022/02/18 07:09:11;;;;;;;;;;;;;;;7.04;72.23;98942.73;1763837;80;20135;-80
2022/02/18 07:11:38;;;;;;;;;;;;;;;6.98;72.36;98953.88;1766366;80;20237;-81
2022/02/18 07:14:06;;;;;;;;;;;;;;;6.86;72.37;98961.73;1768783;79;21969;-81
2022/02/18 07:16:32;;;;;;;;;;;;;;;7.06;72.14;98948.63;1761313;79;20082;-86
2022/02/18 07:18:58;;;;;;;;;;;;;;;6.82;72.03;98997.48;1762884;79;20598;-85
2022/02/18 07:21:23;;;;;;;;;;;;;;;6.98;72.43;98952.07;1747958;80;20155;-80
2022/02/18 07:23:49;;;;;;;;;;;;;;;7.37;71.08;98942.22;1760156;80;20112;-83
2022/02/18 07:26:14;;;;;;;;;;;;;;;6.88;71.89;98959.77;1768319;79;21139;-85
2022/02/18 07:28:40;;;;;;;;;;;;;;;7.06;71.26;98961.75;1758749;79;20451;-83
2022/02/18 07:31:06;;;;;;;;;;;;;;;7.01;70.83;98960.12;1756709;80;20155;-83
2022/02/18 07:33:31;;;;;;;;;;;;;;;6.84;70.77;98967.15;1755231;79;20158;-83
2022/02/18 07:35:57;;;;;;;;;;;;;;;6.96;70.51;98967.64;1768034;79;20145;-82
2022/02/18 07:38:23;;;;;;;;;;;;;;;6.94;70.02;99001.11;1762849;80;21139;-86
2022/02/18 07:40:48;;;;;;;;;;;;;;;6.98;69.47;99012.44;1765248;80;20473;-82
2022/02/18 07:43:14;;;;;;;;;;;;;;;6.92;69.57;98976.84;1760516;80;20185;-79
2022/02/18 07:45:39;;;;;;;;;;;;;;;7.06;69.04;99028.70;1762825;80;20246;-80
2022/02/18 07:48:05;;;;;;;;;;;;;;;7.07;69.02;99007.19;1763288;80;20201;-82
2022/02/18 07:50:30;;;;;;;;;;;;;;;7.06;68.84;98988.00;1764677;80;21272;-83
2022/02/18 07:52:56;;;;;;;;;;;;;;;7.06;68.63;99010.81;1753182;79;20665;-82
2022/02/18 07:55:22;;;;;;;;;;;;;;;6.99;69.26;99025.06;1758836;80;20158;-81
2022/02/18 07:57:47;;;;;;;;;;;;;;;7.10;69.13;98986.70;1766259;79;20143;-82
2022/02/18 08:00:13;;;;;;;;;;;;;;;7.31;68.35;98993.28;1757008;80;20926;-85
2022/02/18 08:02:39;;;;;;;;;;;;;;;7.21;68.52;99026.27;1756826;80;21060;-81
2022/02/18 08:05:05;;;;;;;;;;;;;;;7.40;68.02;99008.56;1760312;80;20271;-82
2022/02/18 08:07:31;;;;;;;;;;;;;;;7.35;68.03;99026.13;1758789;79;20178;-83
2022/02/18 08:09:57;;;;;;;;;;;;;;;6.90;68.64;99034.73;1758142;79;20151;-80
2022/02/18 08:12:22;;;;;;;;;;;;;;;7.11;68.43;99043.96;1761442;80;20511;-81
2022/02/18 08:14:48;;;;;;;;;;;;;;;7.18;68.29;99033.16;1760331;79;21163;-80
2022/02/18 08:17:13;;;;;;;;;;;;;;;7.13;68.59;99037.58;1761055;79;20740;-79
2022/02/18 08:19:39;;;;;;;;;;;;;;;7.28;67.93;99039.56;1762601;79;20250;-79
2022/02/18 08:22:05;;;;;;;;;;;;;;;7.24;68.31;99022.48;1761113;79;20689;-83
2022/02/18 08:24:31;;;;;;;;;;;;;;;7.23;67.95;99047.92;1757553;79;20185;-85
2022/02/18 08:26:57;;;;;;;;;;;;;;;7.27;67.91;99026.09;1759919;79;21118;-84
2022/02/18 08:29:23;;;;;;;;;;;;;;;7.28;68.06;99035.63;1760494;79;20280;-82
2022/02/18 08:31:49;;;;;;;;;;;;;;;7.34;67.77;99036.28;1761222;79;20166;-82
2022/02/18 08:34:15;;;;;;;;;;;;;;;7.21;67.75;99054.30;1761185;79;20265;-82
2022/02/18 08:36:40;;;;;;;;;;;;;;;7.16;67.39;99042.50;1729201;80;20142;-80
2022/02/18 08:39:06;;;;;;;;;;;;;;;7.39;67.19;99070.75;1725912;82;21148;-85
2022/02/18 08:41:33;;;;;;;;;;;;;;;7.54;66.74;99053.36;1706564;83;20330;-85
2022/02/18 08:43:58;;;;;;;;;;;;;;;7.34;66.85;99065.17;1716461;82;20205;-82
2022/02/18 08:46:26;;;;;;;;;;;;;;;7.67;66.47;99063.87;1709406;83;20604;-81
2022/02/18 08:48:52;;;;;;;;;;;;;;;7.63;66.18;99068.66;1728364;81;20184;-82
2022/02/18 08:51:17;;;;;;;;;;;;;;;7.51;66.31;99087.84;1724721;82;21194;-81
2022/02/18 08:53:43;;;;;;;;;;;;;;;7.51;66.24;99053.69;1728655;82;20195;-79
2022/02/18 08:56:09;;;;;;;;;;;;;;;7.32;66.69;99064.52;1721974;82;20463;-79
2022/02/18 08:58:34;;;;;;;;;;;;;;;7.54;66.36;99068.31;1723535;82;20155;-83
2022/02/18 09:01:00;;;;;;;;;;;;;;;7.38;66.75;99078.32;1708174;83;20184;-85
2022/02/18 09:03:25;;;;;;;;;;;;;;;7.68;66.04;99099.69;1727258;81;21093;-81
2022/02/18 09:05:51;;;;;;;;;;;;;;;7.50;66.28;99119.05;1725785;81;20461;-84
2022/02/18 09:08:17;;;;;;;;;;;;;;;7.70;66.17;99097.20;1729158;81;20214;-84
2022/02/18 09:10:44;;;;;;;;;;;;;;;7.53;66.31;99144.16;1727865;82;21111;-80
2022/02/18 09:13:11;;;;;;;;;;;;;;;7.23;66.86;99100.44;1706819;83;20150;-79
2022/02/18 09:15:37;;;;;;;;;;;;;;;7.26;67.22;99110.63;1726986;82;22033;-79
2022/02/18 09:18:03;;;;;;;;;;;;;;;7.41;66.95;99137.09;1728194;81;20159;-79
2022/02/18 09:20:28;;;;;;;;;;;;;;;7.53;66.86;99120.02;1724181;81;20204;-81
2022/02/18 09:22:54;;;;;;;;;;;;;;;7.50;66.93;99140.07;1726912;81;21059;-80
2022/02/18 09:25:20;;;;;;;;;;;;;;;7.39;66.91;99135.59;1727434;82;20152;-81
2022/02/18 09:27:46;;;;;;;;;;;;;;;7.51;66.82;99111.48;1719959;82;21980;-82
2022/02/18 09:30:12;;;;;;;;;;;;;;;7.37;66.61;99141.02;1728261;82;20248;-81
2022/02/18 09:32:38;;;;;;;;;;;;;;;7.35;67.06;99145.11;1722782;82;20204;-83
2022/02/18 09:35:04;;;;;;;;;;;;;;;7.44;66.93;99128.89;1721829;81;20191;-83
2022/02/18 09:37:30;;;;;;;;;;;;;;;7.55;66.94;99125.11;1748766;80;20205;-85
2022/02/18 09:39:56;;;;;;;;;;;;;;;7.28;66.95;99158.54;1746334;80;21091;-80
2022/02/18 09:42:22;;;;;;;;;;;;;;;7.22;67.03;99160.48;1752336;81;20518;-79
2022/02/18 09:44:48;;;;;;;;;;;;;;;7.40;66.28;99148.58;1752452;81;20548;-84
2022/02/18 09:47:14;;;;;;;;;;;;;;;7.41;65.85;99155.48;1752768;80;20201;-80
2022/02/18 09:49:40;;;;;;;;;;;;;;;7.45;65.65;99177.80;1752524;81;20243;-81
2022/02/18 09:52:07;;;;;;;;;;;;;;;7.36;65.00;99144.61;1749334;81;21182;-81
2022/02/18 09:54:33;;;;;;;;;;;;;;;7.34;65.27;99157.09;1749217;81;21093;-80
2022/02/18 09:57:00;;;;;;;;;;;;;;;7.65;64.53;99156.01;1749951;81;20291;-83
2022/02/18 09:59:27;;;;;;;;;;;;;;;7.53;64.69;99152.86;1750655;81;20186;-83
2022/02/18 10:01:53;;;;;;;;;;;;;;;7.48;64.88;99189.30;1749719;81;20178;-82
2022/02/18 10:04:18;;;;;;;;;;;;;;;7.54;64.80;99166.83;1749581;80;21089;-82
2022/02/18 10:06:44;;;;;;;;;;;;;;;7.39;64.42;99191.57;1739728;81;20348;-82
2022/02/18 10:09:10;;;;;;;;;;;;;;;7.58;64.24;99180.45;1738616;81;20270;-83
2022/02/18 10:11:53;;;;;;;;;;;;;;;7.41;64.69;99165.98;1755548;80;20592;-84
2022/02/18 10:14:19;;;;;;;;;;;;;;;7.28;64.91;99183.98;1760473;80;20165;-82
2022/02/18 10:16:44;;;;;;;;;;;;;;;7.48;64.76;99168.78;1761381;80;21166;-85
2022/02/18 10:19:10;;;;;;;;;;;;;;;7.40;65.04;99184.53;1721814;81;20418;-82
2022/02/18 10:21:37;;;;;;;;;;;;;;;7.30;65.78;99171.52;1760886;80;20262;-83
2022/02/18 10:24:12;;;;;;;;;;;;;;;7.34;65.93;99177.60;1754596;80;20197;-83
2022/02/18 10:26:41;;;;;;;;;;;;;;;7.38;65.95;99207.02;1759280;80;20176;-79
2022/02/18 10:29:07;;;;;;;;;;;;;;;7.39;65.61;99196.01;1756689;81;20863;-82
2022/02/18 10:31:33;;;;;;;;;;;;;;;7.51;65.41;99173.72;1759889;80;20217;-81
2022/02/18 10:34:02;;;;;;;;;;;;;;;7.60;65.48;99190.30;1719889;81;32762;-83
2022/02/18 10:36:42;;;;;;;;;;;;;;;7.81;65.20;99189.36;1761205;80;20172;-84
2022/02/18 10:39:27;;;;;;;;;;;;;;;7.70;64.96;99201.01;1759557;81;20185;-82
2022/02/18 10:42:00;;;;;;;;;;;;;;;7.50;65.41;99225.45;1759017;80;20954;-86
2022/02/18 10:44:28;;;;;;;;;;;;;;;7.51;65.40;99211.31;1728191;81;20206;-84
2022/02/18 10:46:57;;;;;;;;;;;;;;;7.70;65.42;99181.30;1755512;80;20181;-87
2022/02/18 10:49:24;;;;;;;;;;;;;;;7.77;64.86;99218.28;1756357;80;20677;-83
2022/02/18 10:51:52;;;;;;;;;;;;;;;7.81;65.00;99203.82;1739458;82;20162;-84
2022/02/18 10:54:18;;;;;;;;;;;;;;;7.55;65.49;99224.47;1738022;82;21194;-83
2022/02/18 10:56:44;;;;;;;;;;;;;;;7.78;65.33;99227.80;1766625;80;20604;-82
2022/02/18 10:59:09;;;;;;;;;;;;;;;7.97;64.97;99220.61;1759890;81;20147;-83
2022/02/18 11:01:43;;;;;;;;;;;;;;;7.86;65.27;99228.30;1755049;80;20640;-83
2022/02/18 11:04:08;;;;;;;;;;;;;;;7.72;65.11;99267.86;1731306;81;20456;-85
2022/02/18 11:06:36;;;;;;;;;;;;;;;7.97;63.90;99211.41;1756932;80;21069;-83
2022/02/18 11:09:08;;;;;;;;;;;;;;;7.89;63.41;99203.86;1756947;80;20140;-83
2022/02/18 11:11:39;;;;;;;;;;;;;;;7.97;62.60;99217.50;1761302;80;20661;-83
2022/02/18 11:14:10;;;;;;;;;;;;;;;7.83;63.56;99224.69;1760183;81;20848;-80
2022/02/18 11:16:36;;;;;;;;;;;;;;;7.78;64.30;99210.72;1758344;80;20274;-81
2022/02/18 11:19:02;;;;;;;;;;;;;;;7.80;63.81;99230.27;1758054;81;21139;-88
2022/02/18 11:21:27;;;;;;;;;;;;;;;7.74;63.46;99212.04;1761393;80;20180;-83
2022/02/18 11:23:56;;;;;;;;;;;;;;;7.87;63.35;99233.91;1760099;80;20122;-84
2022/02/18 11:26:22;;;;;;;;;;;;;;;7.84;62.19;99238.98;1737525;82;20578;-85
2022/02/18 11:28:49;;;;;;;;;;;;;;;7.65;62.19;99219.57;1739125;81;21200;-83
2022/02/18 11:31:33;;;;;;;;;;;;;;;7.94;62.00;99204.69;1739191;82;21067;-86
2022/02/18 11:34:18;;;;;;;;;;;;;;;7.84;61.84;99225.84;1759950;80;20202;-85
2022/02/18 11:37:17;;;;;;;;;;;;;;;7.97;61.63;99233.28;1760118;80;20269;-82
2022/02/18 11:40:01;;;;;;;;;;;;;;;8.06;61.21;99209.11;1755484;79;20209;-84
2022/02/18 11:42:52;;;;;;;;;;;;;;;8.15;60.51;99207.33;1757947;79;20258;-85
2022/02/18 11:45:18;;;;;;;;;;;;;;;7.97;60.70;99209.62;1758835;80;21208;-86
2022/02/18 11:47:45;;;;;;;;;;;;;;;8.24;60.13;99199.27;1763840;80;20467;-81
2022/02/18 11:50:16;;;;;;;;;;;;;;;8.38;60.00;99202.23;1763790;79;20156;-82
2022/02/18 11:52:43;;;;;;;;;;;;;;;8.32;59.21;99222.62;1761182;80;20557;-81
2022/02/18 11:55:31;;;;;;;;;;;;;;;8.74;58.11;99209.78;1761539;80;20604;-84
2022/02/18 11:58:12;;;;;;;;;;;;;;;8.56;58.00;99194.17;1762034;80;21086;-86
2022/02/18 12:00:40;;;;;;;;;;;;;;;8.34;57.88;99191.70;1762253;80;20206;-82
2022/02/18 12:03:23;;;;;;;;;;;;;;;8.57;58.01;99194.00;1767111;80;20482;-84
2022/02/18 12:06:16;;;;;;;;;;;;;;;8.53;57.85;99175.61;1761996;80;20223;-82
2022/02/18 12:08:44;;;;;;;;;;;;;;;8.31;57.84;99189.39;1765356;80;20106;-85
2022/02/18 12:11:17;;;;;;;;;;;;;;;8.41;58.30;99182.17;1765367;80;20968;-84
2022/02/18 12:13:50;;;;;;;;;;;;;;;8.36;59.78;99182.66;1763499;80;20185;-81
2022/02/18 12:16:16;;;;;;;;;;;;;;;8.58;59.20;99179.87;1760721;80;20189;-80
2022/02/18 12:18:44;;;;;;;;;;;;;;;8.74;58.56;99162.40;1762595;80;20307;-82
2022/02/18 12:21:11;;;;;;;;;;;;;;;8.72;57.22;99188.89;1760429;80;21104;-83
2022/02/18 12:23:42;;;;;;;;;;;;;;;8.58;56.03;99171.16;1760544;80;21988;-84
2022/02/18 12:26:24;;;;;;;;;;;;;;;8.87;55.68;99170.59;1751133;80;20555;-83
2022/02/18 12:28:48;;;;;;;;;;;;;;;9.06;55.14;99205.41;1764368;80;20153;-84
2022/02/18 12:31:14;;;;;;;;;;;;;;;8.88;55.14;99173.53;1756327;80;20204;-83
2022/02/18 12:33:40;;;;;;;;;;;;;;;8.95;55.13;99170.56;1763753;80;20140;-83
2022/02/18 12:36:14;;;;;;;;;;;;;;;8.91;55.20;99179.78;1761600;80;21000;-86
2022/02/18 12:38:43;;;;;;;;;;;;;;;9.03;54.88;99162.32;1764341;80;20212;-84
2022/02/18 12:41:10;;;;;;;;;;;;;;;9.13;55.05;99164.23;1752458;80;20145;-86
2022/02/18 12:43:37;;;;;;;;;;;;;;;9.03;55.66;99179.44;1758356;80;20147;-86
2022/02/18 12:46:05;;;;;;;;;;;;;;;9.10;55.05;99161.94;1768777;80;20180;-86
2022/02/18 12:48:42;;;;;;;;;;;;;;;8.93;52.20;99159.39;1763582;80;20203;-83
2022/02/18 12:51:13;;;;;;;;;;;;;;;9.16;52.95;99169.16;1762424;80;20174;-82
2022/02/18 12:53:39;;;;;;;;;;;;;;;9.25;52.64;99162.86;1765980;80;20168;-84
2022/02/18 12:56:13;;;;;;;;;;;;;;;9.18;53.08;99155.82;1755780;80;20239;-81